Norway, Iowa
Current Conditions -  °F | °C
As of 1:52 PM on Wednesday 26 Nov 2014 (Local Time) from KCID Reporting Station
Haze Haze  
Wind Chill: 20°   Ceiling: 7000
Heat Index: 30°   Visibility: 6mi
Dew Point: 26°   Wind: 13mph
Humidity: 85%   Direction: 90°E
Pressure: 30.02"   Gusts: NA
Location:  41.9°N, 91.92°W
Report Text: KCID 261952Z 09011KT 6SM BR OVC070 M01/M03 A3002 RMK AO2 SLP178 T10111033
Loading
Personal Weather Stations






























Interactive Weather Map New forecast layout! Learn more

10-Day Weather Forecast

Advertisements
Track Severe Weather on mobile